sensor_id;sensor_type;location;lat;lon;timestamp;pressure;altitude;pressure_sealevel;temperature;humidity
62248;BME280;48237;50.140;8.486;2023-02-13T00:01:08;101740.36;;;6.96;100.00
62248;BME280;48237;50.140;8.486;2023-02-13T00:03:35;101741.37;;;5.26;100.00
62248;BME280;48237;50.140;8.486;2023-02-13T00:06:03;101738.86;;;5.29;100.00
62248;BME280;48237;50.140;8.486;2023-02-13T00:08:30;101727.92;;;7.41;100.00
62248;BME280;48237;50.140;8.486;2023-02-13T00:10:57;101728.98;;;5.86;100.00
62248;BME280;48237;50.140;8.486;2023-02-13T00:13:24;101728.37;;;6.04;100.00
62248;BME280;48237;50.140;8.486;2023-02-13T00:16:00;101729.35;;;5.76;100.00
62248;BME280;48237;50.140;8.486;2023-02-13T00:18:28;101724.71;;;7.04;100.00
62248;BME280;48237;50.140;8.486;2023-02-13T00:20:58;101723.76;;;7.12;100.00
62248;BME280;48237;50.140;8.486;2023-02-13T00:23:28;101723.78;;;5.65;100.00
62248;BME280;48237;50.140;8.486;2023-02-13T00:25:55;101727.64;;;6.24;100.00
62248;BME280;48237;50.140;8.486;2023-02-13T00:28:23;101720.80;;;7.25;100.00
62248;BME280;48237;50.140;8.486;2023-02-13T00:30:50;101719.52;;;7.34;100.00
62248;BME280;48237;50.140;8.486;2023-02-13T00:33:17;101713.96;;;7.77;100.00
62248;BME280;48237;50.140;8.486;2023-02-13T00:35:44;101715.40;;;7.19;100.00
62248;BME280;48237;50.140;8.486;2023-02-13T00:38:11;101715.27;;;6.41;100.00
62248;BME280;48237;50.140;8.486;2023-02-13T00:40:38;101709.26;;;8.29;98.42
62248;BME280;48237;50.140;8.486;2023-02-13T00:43:06;101713.07;;;6.97;100.00
62248;BME280;48237;50.140;8.486;2023-02-13T00:45:34;101712.93;;;5.25;100.00
62248;BME280;48237;50.140;8.486;2023-02-13T00:48:04;101713.42;;;5.34;100.00
62248;BME280;48237;50.140;8.486;2023-02-13T00:50:32;101714.74;;;5.36;100.00
62248;BME280;48237;50.140;8.486;2023-02-13T00:53:00;101711.61;;;5.60;100.00
62248;BME280;48237;50.140;8.486;2023-02-13T00:55:27;101712.91;;;6.19;100.00
62248;BME280;48237;50.140;8.486;2023-02-13T00:57:55;101705.49;;;7.49;100.00
62248;BME280;48237;50.140;8.486;2023-02-13T01:00:22;101706.97;;;6.91;100.00
62248;BME280;48237;50.140;8.486;2023-02-13T01:02:49;101700.03;;;8.09;98.91
62248;BME280;48237;50.140;8.486;2023-02-13T01:05:16;101704.84;;;7.06;100.00
62248;BME280;48237;50.140;8.486;2023-02-13T01:07:44;101705.59;;;6.31;100.00
62248;BME280;48237;50.140;8.486;2023-02-13T01:10:11;101703.49;;;6.16;100.00
62248;BME280;48237;50.140;8.486;2023-02-13T01:12:38;101699.96;;;7.31;100.00
62248;BME280;48237;50.140;8.486;2023-02-13T01:15:06;101711.07;;;4.93;100.00
62248;BME280;48237;50.140;8.486;2023-02-13T01:17:34;101713.15;;;5.26;100.00
62248;BME280;48237;50.140;8.486;2023-02-13T01:20:02;101706.05;;;6.92;100.00
62248;BME280;48237;50.140;8.486;2023-02-13T01:22:29;101709.50;;;5.52;100.00
62248;BME280;48237;50.140;8.486;2023-02-13T01:24:57;101710.26;;;5.42;100.00
62248;BME280;48237;50.140;8.486;2023-02-13T01:27:26;101710.15;;;6.39;100.00
62248;BME280;48237;50.140;8.486;2023-02-13T01:29:53;101710.91;;;7.19;100.00
62248;BME280;48237;50.140;8.486;2023-02-13T01:32:21;101707.53;;;7.45;99.47
62248;BME280;48237;50.140;8.486;2023-02-13T01:34:48;101709.00;;;7.12;100.00
62248;BME280;48237;50.140;8.486;2023-02-13T01:37:16;101704.14;;;6.82;100.00
62248;BME280;48237;50.140;8.486;2023-02-13T01:39:43;101700.46;;;7.70;96.87
62248;BME280;48237;50.140;8.486;2023-02-13T01:42:15;101700.06;;;8.05;93.34
62248;BME280;48237;50.140;8.486;2023-02-13T01:44:48;101704.75;;;5.82;100.00
62248;BME280;48237;50.140;8.486;2023-02-13T01:47:22;101697.78;;;7.32;97.44
62248;BME280;48237;50.140;8.486;2023-02-13T01:50:01;101693.13;;;8.02;93.94
62248;BME280;48237;50.140;8.486;2023-02-13T01:52:29;101692.81;;;8.50;90.52
62248;BME280;48237;50.140;8.486;2023-02-13T01:54:57;101694.17;;;8.14;93.75
62248;BME280;48237;50.140;8.486;2023-02-13T01:57:26;101697.48;;;6.60;100.00
62248;BME280;48237;50.140;8.486;2023-02-13T01:59:57;101691.99;;;8.58;90.48
62248;BME280;48237;50.140;8.486;2023-02-13T02:02:27;101696.77;;;6.21;100.00
62248;BME280;48237;50.140;8.486;2023-02-13T02:04:55;101698.30;;;5.75;100.00
62248;BME280;48237;50.140;8.486;2023-02-13T02:07:24;101694.58;;;6.87;100.00
62248;BME280;48237;50.140;8.486;2023-02-13T02:09:55;101699.25;;;6.13;100.00
62248;BME280;48237;50.140;8.486;2023-02-13T02:12:28;101691.73;;;7.37;100.00
62248;BME280;48237;50.140;8.486;2023-02-13T02:14:59;101690.32;;;7.37;97.96
62248;BME280;48237;50.140;8.486;2023-02-13T02:17:28;101691.01;;;6.59;99.34
62248;BME280;48237;50.140;8.486;2023-02-13T02:20:03;101686.73;;;7.59;95.54
62248;BME280;48237;50.140;8.486;2023-02-13T02:23:25;101685.69;;;7.15;94.49
62248;BME280;48237;50.140;8.486;2023-02-13T02:29:43;101681.67;;;6.85;98.83
62248;BME280;48237;50.140;8.486;2023-02-13T02:32:26;101683.96;;;6.16;98.55
62248;BME280;48237;50.140;8.486;2023-02-13T02:35:06;101686.51;;;6.09;99.33
62248;BME280;48237;50.140;8.486;2023-02-13T02:37:47;101686.90;;;6.60;98.04
62248;BME280;48237;50.140;8.486;2023-02-13T02:40:25;101682.65;;;6.42;96.49
62248;BME280;48237;50.140;8.486;2023-02-13T02:43:08;101680.43;;;7.32;91.97
62248;BME280;48237;50.140;8.486;2023-02-13T02:45:45;101678.34;;;7.97;83.50
62248;BME280;48237;50.140;8.486;2023-02-13T02:48:27;101680.13;;;7.91;82.72
62248;BME280;48237;50.140;8.486;2023-02-13T02:50:58;101684.65;;;7.60;83.72
62248;BME280;48237;50.140;8.486;2023-02-13T02:53:32;101681.39;;;8.38;81.30
62248;BME280;48237;50.140;8.486;2023-02-13T02:56:07;101688.07;;;7.18;84.37
62248;BME280;48237;50.140;8.486;2023-02-13T02:58:40;101692.06;;;6.07;90.80
62248;BME280;48237;50.140;8.486;2023-02-13T03:01:13;101687.04;;;7.12;85.59
62248;BME280;48237;50.140;8.486;2023-02-13T03:03:41;101683.56;;;7.36;82.85
62248;BME280;48237;50.140;8.486;2023-02-13T03:06:14;101687.29;;;7.31;80.88
62248;BME280;48237;50.140;8.486;2023-02-13T03:08:45;101684.90;;;7.12;82.02
62248;BME280;48237;50.140;8.486;2023-02-13T03:11:17;101686.54;;;6.72;83.69
62248;BME280;48237;50.140;8.486;2023-02-13T03:13:47;101684.17;;;6.34;86.26
62248;BME280;48237;50.140;8.486;2023-02-13T03:16:18;101684.32;;;6.47;84.80
62248;BME280;48237;50.140;8.486;2023-02-13T03:18:50;101687.78;;;6.58;86.09
62248;BME280;48237;50.140;8.486;2023-02-13T03:21:26;101688.73;;;6.81;83.41
62248;BME280;48237;50.140;8.486;2023-02-13T03:24:05;101686.53;;;6.83;81.72
62248;BME280;48237;50.140;8.486;2023-02-13T03:26:39;101686.25;;;6.34;83.93
62248;BME280;48237;50.140;8.486;2023-02-13T03:29:16;101687.29;;;6.71;82.24
62248;BME280;48237;50.140;8.486;2023-02-13T03:31:52;101684.17;;;6.63;82.12
62248;BME280;48237;50.140;8.486;2023-02-13T03:34:24;101687.30;;;6.22;82.32
62248;BME280;48237;50.140;8.486;2023-02-13T03:36:59;101689.45;;;5.99;82.73
62248;BME280;48237;50.140;8.486;2023-02-13T03:39:36;101689.32;;;6.50;81.31
62248;BME280;48237;50.140;8.486;2023-02-13T03:42:13;101692.84;;;6.79;82.51
62248;BME280;48237;50.140;8.486;2023-02-13T03:44:48;101690.31;;;6.38;83.28
62248;BME280;48237;50.140;8.486;2023-02-13T03:47:19;101690.93;;;6.34;80.35
62248;BME280;48237;50.140;8.486;2023-02-13T03:49:49;101693.87;;;5.91;83.50
62248;BME280;48237;50.140;8.486;2023-02-13T03:52:21;101696.59;;;4.90;85.21
62248;BME280;48237;50.140;8.486;2023-02-13T03:54:53;101694.62;;;6.41;82.25
62248;BME280;48237;50.140;8.486;2023-02-13T03:57:23;101700.39;;;5.64;84.35
62248;BME280;48237;50.140;8.486;2023-02-13T03:59:53;101695.70;;;5.92;81.08
62248;BME280;48237;50.140;8.486;2023-02-13T04:02:24;101695.39;;;5.73;81.94
62248;BME280;48237;50.140;8.486;2023-02-13T04:04:58;101693.56;;;5.68;82.99
62248;BME280;48237;50.140;8.486;2023-02-13T04:07:28;101696.87;;;5.14;89.51
62248;BME280;48237;50.140;8.486;2023-02-13T04:09:57;101698.31;;;5.44;88.16
62248;BME280;48237;50.140;8.486;2023-02-13T04:12:32;101697.78;;;5.77;85.15
62248;BME280;48237;50.140;8.486;2023-02-13T04:15:06;101695.12;;;5.76;82.54
62248;BME280;48237;50.140;8.486;2023-02-13T04:17:37;101693.60;;;5.81;82.73
62248;BME280;48237;50.140;8.486;2023-02-13T04:20:06;101694.65;;;5.67;82.12
62248;BME280;48237;50.140;8.486;2023-02-13T04:22:41;101693.33;;;5.38;86.51
62248;BME280;48237;50.140;8.486;2023-02-13T04:25:09;101689.20;;;5.85;83.86
62248;BME280;48237;50.140;8.486;2023-02-13T04:27:37;101693.20;;;5.80;81.36
62248;BME280;48237;50.140;8.486;2023-02-13T04:30:06;101692.13;;;5.52;80.11
62248;BME280;48237;50.140;8.486;2023-02-13T04:32:34;101692.99;;;5.26;81.01
62248;BME280;48237;50.140;8.486;2023-02-13T04:35:01;101690.88;;;5.34;84.32
62248;BME280;48237;50.140;8.486;2023-02-13T04:37:28;101692.63;;;5.30;84.64
62248;BME280;48237;50.140;8.486;2023-02-13T04:39:55;101694.81;;;4.14;90.04
62248;BME280;48237;50.140;8.486;2023-02-13T04:42:22;101693.65;;;4.80;87.94
62248;BME280;48237;50.140;8.486;2023-02-13T04:44:49;101688.62;;;5.89;82.64
62248;BME280;48237;50.140;8.486;2023-02-13T04:47:17;101686.97;;;5.25;82.22
62248;BME280;48237;50.140;8.486;2023-02-13T04:49:43;101687.50;;;4.58;82.94
62248;BME280;48237;50.140;8.486;2023-02-13T04:52:10;101685.36;;;4.29;87.03
62248;BME280;48237;50.140;8.486;2023-02-13T04:54:37;101682.65;;;4.04;88.93
62248;BME280;48237;50.140;8.486;2023-02-13T04:57:05;101680.26;;;4.74;91.55
62248;BME280;48237;50.140;8.486;2023-02-13T04:59:32;101681.01;;;4.19;89.71
62248;BME280;48237;50.140;8.486;2023-02-13T05:02:00;101680.08;;;4.33;88.35
62248;BME280;48237;50.140;8.486;2023-02-13T05:04:27;101677.22;;;5.20;85.16
62248;BME280;48237;50.140;8.486;2023-02-13T05:06:54;101677.89;;;4.92;87.00
62248;BME280;48237;50.140;8.486;2023-02-13T05:09:21;101678.44;;;3.47;93.36
62248;BME280;48237;50.140;8.486;2023-02-13T05:11:50;101683.30;;;3.90;94.75
62248;BME280;48237;50.140;8.486;2023-02-13T05:14:18;101682.89;;;4.85;92.94
62248;BME280;48237;50.140;8.486;2023-02-13T05:16:46;101686.19;;;4.98;93.90
62248;BME280;48237;50.140;8.486;2023-02-13T05:19:13;101686.22;;;3.48;100.00
62248;BME280;48237;50.140;8.486;2023-02-13T05:21:40;101685.20;;;3.50;100.00
62248;BME280;48237;50.140;8.486;2023-02-13T05:24:08;101686.00;;;4.49;99.99
62248;BME280;48237;50.140;8.486;2023-02-13T05:26:35;101689.43;;;3.28;95.74
62248;BME280;48237;50.140;8.486;2023-02-13T05:29:02;101691.84;;;4.61;97.40
62248;BME280;48237;50.140;8.486;2023-02-13T05:31:29;101694.57;;;2.95;100.00
62248;BME280;48237;50.140;8.486;2023-02-13T05:33:56;101693.67;;;2.52;100.00
62248;BME280;48237;50.140;8.486;2023-02-13T05:36:23;101691.69;;;3.10;100.00
62248;BME280;48237;50.140;8.486;2023-02-13T05:38:51;101694.30;;;2.56;100.00
62248;BME280;48237;50.140;8.486;2023-02-13T05:41:17;101692.32;;;3.06;100.00
62248;BME280;48237;50.140;8.486;2023-02-13T05:43:44;101691.22;;;4.58;100.00
62248;BME280;48237;50.140;8.486;2023-02-13T05:46:12;101691.37;;;3.80;100.00
62248;BME280;48237;50.140;8.486;2023-02-13T05:48:39;101694.26;;;4.48;95.68
62248;BME280;48237;50.140;8.486;2023-02-13T05:51:07;101691.28;;;4.45;100.00
62248;BME280;48237;50.140;8.486;2023-02-13T05:53:34;101694.30;;;4.28;100.00
62248;BME280;48237;50.140;8.486;2023-02-13T05:56:03;101694.15;;;2.82;100.00
62248;BME280;48237;50.140;8.486;2023-02-13T05:58:31;101693.93;;;2.77;100.00
62248;BME280;48237;50.140;8.486;2023-02-13T06:01:00;101694.30;;;2.95;100.00
62248;BME280;48237;50.140;8.486;2023-02-13T06:03:28;101692.63;;;4.35;100.00
62248;BME280;48237;50.140;8.486;2023-02-13T06:05:57;101695.71;;;3.72;100.00
62248;BME280;48237;50.140;8.486;2023-02-13T06:08:25;101698.52;;;4.22;100.00
62248;BME280;48237;50.140;8.486;2023-02-13T06:10:52;101694.14;;;3.27;100.00
62248;BME280;48237;50.140;8.486;2023-02-13T06:13:19;101695.94;;;2.85;100.00
62248;BME280;48237;50.140;8.486;2023-02-13T06:15:46;101692.05;;;2.86;100.00
62248;BME280;48237;50.140;8.486;2023-02-13T06:18:14;101693.01;;;3.27;100.00
62248;BME280;48237;50.140;8.486;2023-02-13T06:20:40;101688.56;;;3.39;100.00
62248;BME280;48237;50.140;8.486;2023-02-13T06:23:08;101689.35;;;3.77;99.30
62248;BME280;48237;50.140;8.486;2023-02-13T06:25:35;101691.34;;;3.45;100.00
62248;BME280;48237;50.140;8.486;2023-02-13T06:28:02;101689.88;;;3.54;100.00
62248;BME280;48237;50.140;8.486;2023-02-13T06:30:30;101698.51;;;3.20;100.00
62248;BME280;48237;50.140;8.486;2023-02-13T06:32:57;101695.47;;;3.34;100.00
62248;BME280;48237;50.140;8.486;2023-02-13T06:35:26;101693.34;;;3.55;100.00
62248;BME280;48237;50.140;8.486;2023-02-13T06:37:53;101693.29;;;3.65;100.00
62248;BME280;48237;50.140;8.486;2023-02-13T06:40:21;101694.41;;;4.33;100.00
62248;BME280;48237;50.140;8.486;2023-02-13T06:42:48;101697.87;;;3.60;100.00
62248;BME280;48237;50.140;8.486;2023-02-13T06:45:15;101698.17;;;3.90;100.00
62248;BME280;48237;50.140;8.486;2023-02-13T06:47:44;101696.66;;;4.69;99.78
62248;BME280;48237;50.140;8.486;2023-02-13T06:50:12;101702.30;;;4.11;100.00
62248;BME280;48237;50.140;8.486;2023-02-13T06:52:45;101702.51;;;3.96;100.00
62248;BME280;48237;50.140;8.486;2023-02-13T06:55:12;101704.30;;;3.97;100.00
62248;BME280;48237;50.140;8.486;2023-02-13T06:57:40;101705.60;;;4.26;100.00
62248;BME280;48237;50.140;8.486;2023-02-13T07:00:08;101707.11;;;4.61;100.00
62248;BME280;48237;50.140;8.486;2023-02-13T07:02:36;101710.36;;;3.55;100.00
62248;BME280;48237;50.140;8.486;2023-02-13T07:05:03;101709.67;;;4.47;100.00
62248;BME280;48237;50.140;8.486;2023-02-13T07:07:32;101710.31;;;5.24;94.38
62248;BME280;48237;50.140;8.486;2023-02-13T07:10:02;101705.27;;;6.02;88.24
62248;BME280;48237;50.140;8.486;2023-02-13T07:12:32;101710.16;;;5.04;88.08
62248;BME280;48237;50.140;8.486;2023-02-13T07:14:59;101711.17;;;4.40;95.14
62248;BME280;48237;50.140;8.486;2023-02-13T07:17:26;101711.53;;;4.28;96.64
62248;BME280;48237;50.140;8.486;2023-02-13T07:19:53;101704.34;;;5.87;91.23
62248;BME280;48237;50.140;8.486;2023-02-13T07:22:21;101711.47;;;4.22;100.00
62248;BME280;48237;50.140;8.486;2023-02-13T07:24:48;101705.17;;;5.52;94.80
62248;BME280;48237;50.140;8.486;2023-02-13T07:27:15;101704.09;;;6.04;90.36
62248;BME280;48237;50.140;8.486;2023-02-13T07:29:42;101712.24;;;4.82;94.65
62248;BME280;48237;50.140;8.486;2023-02-13T07:32:09;101712.26;;;4.79;96.15
62248;BME280;48237;50.140;8.486;2023-02-13T07:34:36;101713.90;;;4.34;100.00
62248;BME280;48237;50.140;8.486;2023-02-13T07:37:03;101717.42;;;3.92;100.00
62248;BME280;48237;50.140;8.486;2023-02-13T07:39:30;101717.31;;;2.76;100.00
62248;BME280;48237;50.140;8.486;2023-02-13T07:41:58;101716.43;;;3.95;100.00
62248;BME280;48237;50.140;8.486;2023-02-13T07:44:25;101712.98;;;3.50;100.00
62248;BME280;48237;50.140;8.486;2023-02-13T07:46:52;101717.45;;;2.89;100.00
62248;BME280;48237;50.140;8.486;2023-02-13T07:49:19;101722.64;;;2.13;100.00
62248;BME280;48237;50.140;8.486;2023-02-13T07:51:46;101724.30;;;2.60;100.00
62248;BME280;48237;50.140;8.486;2023-02-13T07:54:13;101724.32;;;2.27;100.00
62248;BME280;48237;50.140;8.486;2023-02-13T07:56:39;101720.47;;;2.80;100.00
62248;BME280;48237;50.140;8.486;2023-02-13T07:59:07;101719.77;;;3.51;100.00
62248;BME280;48237;50.140;8.486;2023-02-13T08:01:33;101723.96;;;2.52;100.00
62248;BME280;48237;50.140;8.486;2023-02-13T08:04:01;101726.92;;;2.88;100.00
62248;BME280;48237;50.140;8.486;2023-02-13T08:06:28;101725.07;;;2.89;100.00
62248;BME280;48237;50.140;8.486;2023-02-13T08:08:55;101730.17;;;2.33;100.00
62248;BME280;48237;50.140;8.486;2023-02-13T08:11:27;101732.11;;;2.55;100.00
62248;BME280;48237;50.140;8.486;2023-02-13T08:13:57;101730.15;;;3.07;100.00
62248;BME280;48237;50.140;8.486;2023-02-13T08:16:24;101731.77;;;1.75;100.00
62248;BME280;48237;50.140;8.486;2023-02-13T08:18:51;101729.04;;;1.84;100.00
62248;BME280;48237;50.140;8.486;2023-02-13T08:21:19;101733.45;;;2.04;100.00
62248;BME280;48237;50.140;8.486;2023-02-13T08:23:46;101733.40;;;2.76;100.00
62248;BME280;48237;50.140;8.486;2023-02-13T08:26:13;101734.67;;;2.21;100.00
62248;BME280;48237;50.140;8.486;2023-02-13T08:28:40;101735.46;;;1.81;100.00
62248;BME280;48237;50.140;8.486;2023-02-13T08:31:09;101742.39;;;1.68;100.00
62248;BME280;48237;50.140;8.486;2023-02-13T08:33:37;101740.53;;;2.42;100.00
62248;BME280;48237;50.140;8.486;2023-02-13T08:36:04;101737.19;;;2.06;100.00
62248;BME280;48237;50.140;8.486;2023-02-13T08:38:32;101738.05;;;2.07;100.00
62248;BME280;48237;50.140;8.486;2023-02-13T08:41:00;101741.54;;;2.12;100.00
62248;BME280;48237;50.140;8.486;2023-02-13T08:43:27;101736.88;;;2.24;100.00
62248;BME280;48237;50.140;8.486;2023-02-13T08:45:57;101741.10;;;2.54;100.00
62248;BME280;48237;50.140;8.486;2023-02-13T08:48:24;101743.60;;;2.06;100.00
62248;BME280;48237;50.140;8.486;2023-02-13T08:50:52;101748.36;;;1.91;100.00
62248;BME280;48237;50.140;8.486;2023-02-13T08:53:19;101747.17;;;2.88;100.00
62248;BME280;48237;50.140;8.486;2023-02-13T08:55:51;101745.13;;;4.03;100.00
62248;BME280;48237;50.140;8.486;2023-02-13T08:58:19;101744.93;;;2.47;100.00
62248;BME280;48237;50.140;8.486;2023-02-13T09:00:47;101748.26;;;2.25;100.00
62248;BME280;48237;50.140;8.486;2023-02-13T09:03:15;101749.39;;;2.85;100.00
62248;BME280;48237;50.140;8.486;2023-02-13T09:05:43;101751.80;;;3.07;100.00
62248;BME280;48237;50.140;8.486;2023-02-13T09:08:10;101752.58;;;3.30;100.00
62248;BME280;48237;50.140;8.486;2023-02-13T09:10:37;101754.27;;;2.28;100.00
62248;BME280;48237;50.140;8.486;2023-02-13T09:13:05;101748.56;;;3.72;100.00
62248;BME280;48237;50.140;8.486;2023-02-13T09:15:32;101742.34;;;3.48;100.00
62248;BME280;48237;50.140;8.486;2023-02-13T09:18:00;101747.70;;;2.68;100.00
62248;BME280;48237;50.140;8.486;2023-02-13T09:20:27;101749.18;;;2.71;100.00
62248;BME280;48237;50.140;8.486;2023-02-13T09:22:55;101744.46;;;4.25;100.00
62248;BME280;48237;50.140;8.486;2023-02-13T09:25:21;101750.08;;;3.27;100.00
62248;BME280;48237;50.140;8.486;2023-02-13T09:27:48;101750.37;;;2.72;100.00
62248;BME280;48237;50.140;8.486;2023-02-13T09:30:15;101749.67;;;2.41;100.00
62248;BME280;48237;50.140;8.486;2023-02-13T09:32:42;101750.01;;;2.20;100.00
62248;BME280;48237;50.140;8.486;2023-02-13T09:35:10;101747.18;;;2.87;100.00
62248;BME280;48237;50.140;8.486;2023-02-13T09:37:37;101744.76;;;2.90;100.00
62248;BME280;48237;50.140;8.486;2023-02-13T09:40:06;101743.14;;;2.91;100.00
62248;BME280;48237;50.140;8.486;2023-02-13T09:42:34;101745.04;;;2.37;100.00
62248;BME280;48237;50.140;8.486;2023-02-13T09:45:03;101746.74;;;2.46;100.00
62248;BME280;48237;50.140;8.486;2023-02-13T09:47:34;101747.49;;;2.75;100.00
62248;BME280;48237;50.140;8.486;2023-02-13T09:50:06;101744.18;;;3.43;100.00
62248;BME280;48237;50.140;8.486;2023-02-13T09:52:38;101743.76;;;4.69;100.00
62248;BME280;48237;50.140;8.486;2023-02-13T09:55:14;101743.42;;;3.54;100.00
62248;BME280;48237;50.140;8.486;2023-02-13T09:57:46;101742.90;;;3.65;100.00
62248;BME280;48237;50.140;8.486;2023-02-13T10:00:21;101743.05;;;4.05;100.00
62248;BME280;48237;50.140;8.486;2023-02-13T10:03:05;101746.41;;;4.39;100.00
62248;BME280;48237;50.140;8.486;2023-02-13T10:05:44;101747.25;;;2.91;100.00
62248;BME280;48237;50.140;8.486;2023-02-13T10:08:22;101752.78;;;2.82;100.00
62248;BME280;48237;50.140;8.486;2023-02-13T10:10:55;101744.04;;;3.67;100.00
62248;BME280;48237;50.140;8.486;2023-02-13T10:13:38;101746.24;;;3.18;100.00
62248;BME280;48237;50.140;8.486;2023-02-13T10:16:15;101749.32;;;3.34;100.00
62248;BME280;48237;50.140;8.486;2023-02-13T10:18:48;101752.22;;;2.78;100.00
62248;BME280;48237;50.140;8.486;2023-02-13T10:21:20;101751.90;;;2.94;100.00
62248;BME280;48237;50.140;8.486;2023-02-13T10:23:55;101750.81;;;2.82;100.00
62248;BME280;48237;50.140;8.486;2023-02-13T10:26:27;101751.16;;;2.77;100.00
62248;BME280;48237;50.140;8.486;2023-02-13T10:28:59;101749.60;;;2.95;100.00
62248;BME280;48237;50.140;8.486;2023-02-13T10:31:28;101746.31;;;3.24;100.00
62248;BME280;48237;50.140;8.486;2023-02-13T10:33:58;101747.37;;;3.24;100.00
62248;BME280;48237;50.140;8.486;2023-02-13T10:36:31;101743.01;;;3.32;100.00
62248;BME280;48237;50.140;8.486;2023-02-13T10:39:05;101740.71;;;3.72;100.00
62248;BME280;48237;50.140;8.486;2023-02-13T10:41:47;101739.26;;;3.74;100.00
62248;BME280;48237;50.140;8.486;2023-02-13T10:44:32;101736.44;;;2.96;100.00
62248;BME280;48237;50.140;8.486;2023-02-13T10:47:12;101734.61;;;3.24;100.00
62248;BME280;48237;50.140;8.486;2023-02-13T10:49:51;101728.64;;;4.41;100.00
62248;BME280;48237;50.140;8.486;2023-02-13T10:52:29;101725.13;;;3.74;100.00
62248;BME280;48237;50.140;8.486;2023-02-13T10:55:11;101725.00;;;4.30;100.00
62248;BME280;48237;50.140;8.486;2023-02-13T10:58:03;101725.88;;;3.52;100.00
62248;BME280;48237;50.140;8.486;2023-02-13T11:00:36;101716.93;;;3.60;100.00
62248;BME280;48237;50.140;8.486;2023-02-13T11:03:04;101718.03;;;3.72;100.00
62248;BME280;48237;50.140;8.486;2023-02-13T11:05:35;101714.82;;;4.01;100.00
62248;BME280;48237;50.140;8.486;2023-02-13T11:08:08;101713.92;;;4.17;100.00
62248;BME280;48237;50.140;8.486;2023-02-13T11:10:41;101709.33;;;4.10;100.00
62248;BME280;48237;50.140;8.486;2023-02-13T11:13:16;101705.47;;;4.54;100.00
62248;BME280;48237;50.140;8.486;2023-02-13T11:15:56;101707.37;;;4.23;100.00
62248;BME280;48237;50.140;8.486;2023-02-13T11:18:26;101705.17;;;4.27;100.00
62248;BME280;48237;50.140;8.486;2023-02-13T11:21:02;101702.80;;;5.04;100.00
62248;BME280;48237;50.140;8.486;2023-02-13T11:23:37;101692.24;;;5.46;100.00
62248;BME280;48237;50.140;8.486;2023-02-13T11:26:07;101690.74;;;5.06;100.00
62248;BME280;48237;50.140;8.486;2023-02-13T11:28:37;101695.61;;;4.74;100.00
62248;BME280;48237;50.140;8.486;2023-02-13T11:31:12;101694.90;;;4.78;100.00
62248;BME280;48237;50.140;8.486;2023-02-13T11:33:41;101688.79;;;5.27;100.00
62248;BME280;48237;50.140;8.486;2023-02-13T11:36:13;101687.37;;;5.06;100.00
62248;BME280;48237;50.140;8.486;2023-02-13T11:38:41;101685.78;;;4.70;100.00
62248;BME280;48237;50.140;8.486;2023-02-13T11:41:11;101685.00;;;4.61;100.00
62248;BME280;48237;50.140;8.486;2023-02-13T11:43:46;101683.06;;;4.54;100.00
62248;BME280;48237;50.140;8.486;2023-02-13T11:46:19;101681.14;;;4.57;100.00
62248;BME280;48237;50.140;8.486;2023-02-13T11:48:58;101678.45;;;4.79;100.00
62248;BME280;48237;50.140;8.486;2023-02-13T11:51:39;101668.96;;;5.72;100.00
62248;BME280;48237;50.140;8.486;2023-02-13T11:54:22;101668.84;;;5.48;100.00
62248;BME280;48237;50.140;8.486;2023-02-13T11:56:52;101668.24;;;5.56;100.00
62248;BME280;48237;50.140;8.486;2023-02-13T11:59:22;101674.40;;;5.12;100.00
62248;BME280;48237;50.140;8.486;2023-02-13T12:02:01;101665.60;;;5.90;100.00
62248;BME280;48237;50.140;8.486;2023-02-13T12:04:29;101668.03;;;5.37;100.00
62248;BME280;48237;50.140;8.486;2023-02-13T12:07:00;101663.86;;;6.18;100.00
62248;BME280;48237;50.140;8.486;2023-02-13T12:09:29;101664.21;;;5.88;99.60
62248;BME280;48237;50.140;8.486;2023-02-13T12:12:00;101662.19;;;6.51;95.35
62248;BME280;48237;50.140;8.486;2023-02-13T12:14:31;101655.08;;;6.18;96.07
62248;BME280;48237;50.140;8.486;2023-02-13T12:17:03;101646.39;;;6.96;93.28
62248;BME280;48237;50.140;8.486;2023-02-13T12:19:37;101648.11;;;7.29;85.90
62248;BME280;48237;50.140;8.486;2023-02-13T12:22:17;101649.58;;;6.85;86.85
62248;BME280;48237;50.140;8.486;2023-02-13T12:25:02;101653.12;;;6.38;90.03
62248;BME280;48237;50.140;8.486;2023-02-13T12:27:42;101653.19;;;6.68;91.24
62248;BME280;48237;50.140;8.486;2023-02-13T12:30:41;101645.15;;;6.47;88.15
62248;BME280;48237;50.140;8.486;2023-02-13T12:33:19;101644.57;;;5.56;93.41
62248;BME280;48237;50.140;8.486;2023-02-13T12:35:56;101646.81;;;5.78;95.59
62248;BME280;48237;50.140;8.486;2023-02-13T12:38:40;101644.06;;;5.90;92.26
62248;BME280;48237;50.140;8.486;2023-02-13T12:41:16;101642.52;;;5.51;93.33
62248;BME280;48237;50.140;8.486;2023-02-13T12:44:03;101637.87;;;5.56;96.90
62248;BME280;48237;50.140;8.486;2023-02-13T12:46:39;101628.90;;;6.34;90.52
62248;BME280;48237;50.140;8.486;2023-02-13T12:49:27;101624.11;;;6.20;90.70
62248;BME280;48237;50.140;8.486;2023-02-13T12:52:10;101623.49;;;5.50;92.84
62248;BME280;48237;50.140;8.486;2023-02-13T12:54:52;101619.08;;;5.65;92.14
62248;BME280;48237;50.140;8.486;2023-02-13T12:57:39;101617.51;;;6.04;91.56
62248;BME280;48237;50.140;8.486;2023-02-13T13:00:21;101618.18;;;5.92;91.53
62248;BME280;48237;50.140;8.486;2023-02-13T13:03:22;101618.39;;;5.48;94.91
62248;BME280;48237;50.140;8.486;2023-02-13T13:06:08;101618.97;;;5.77;92.84
62248;BME280;48237;50.140;8.486;2023-02-13T13:08:51;101613.57;;;6.02;89.37
62248;BME280;48237;50.140;8.486;2023-02-13T13:11:35;101616.31;;;5.96;91.92
62248;BME280;48237;50.140;8.486;2023-02-13T13:14:13;101614.46;;;5.92;89.70
62248;BME280;48237;50.140;8.486;2023-02-13T13:16:51;101610.27;;;6.92;85.45
62248;BME280;48237;50.140;8.486;2023-02-13T13:19:30;101610.68;;;6.13;89.34